Time;durP1;ratioP1;P1;durP2;ratioP2;P2;SDS_P1;SDS_P2;PMS_P1;PMS_P2;Temp;Humidity;BMP_temperature;BMP_pressure;BME280_temperature;BME280_humidity;BME280_pressure;Samples;Min_cycle;Max_cycle;Signal;HPM_P1;HPM_P2
2021/08/04 00:02:19;;;;;;;;;0.33;0.33;;;;;23.17;55.39;98204.84;5002615;27;102115;-90
2021/08/04 00:04:47;;;;;;;;;1.00;1.00;;;;;23.16;55.53;98219.72;5001075;27;103583;-89
2021/08/04 00:07:14;;;;;;;;;1.33;1.33;;;;;23.16;55.60;98214.22;4976429;27;103610;-90
2021/08/04 00:09:46;;;;;;;;;0.67;0.67;;;;;23.14;55.45;98204.28;4906362;27;102529;-90
2021/08/04 00:12:21;;;;;;;;;1.00;1.00;;;;;23.15;55.53;98210.63;4998896;27;101781;-90
2021/08/04 00:14:57;;;;;;;;;0.67;0.67;;;;;23.15;55.53;98213.38;5006888;27;106835;-89
2021/08/04 00:17:29;;;;;;;;;1.00;0.67;;;;;23.13;55.64;98207.34;5007033;27;101804;-89
2021/08/04 00:20:12;;;;;;;;;0.67;0.67;;;;;23.11;55.68;98196.59;5000734;27;103172;-90
2021/08/04 00:22:50;;;;;;;;;1.00;0.67;;;;;23.12;55.69;98212.06;5005890;27;102237;-90
2021/08/04 00:25:27;;;;;;;;;1.33;0.67;;;;;23.11;55.65;98243.50;5017490;27;106995;-90
2021/08/04 00:28:02;;;;;;;;;0.67;0.67;;;;;23.12;55.66;98250.66;5011422;27;102340;-89
2021/08/04 00:30:35;;;;;;;;;1.33;0.67;;;;;23.11;55.51;98237.97;5022821;27;103290;-90
2021/08/04 00:33:12;;;;;;;;;0.33;0.33;;;;;23.09;55.42;98242.97;5013306;27;104251;-90
2021/08/04 00:35:48;;;;;;;;;0.67;0.67;;;;;23.09;55.71;98240.22;5017576;27;102957;-90
2021/08/04 00:38:24;;;;;;;;;1.00;1.00;;;;;23.10;55.65;98239.09;5006439;27;102352;-89
2021/08/04 00:40:56;;;;;;;;;1.33;1.00;;;;;23.10;55.55;98230.81;5007058;27;102710;-90
2021/08/04 00:43:30;;;;;;;;;1.00;1.00;;;;;23.08;55.46;98252.38;5004634;27;102071;-89
2021/08/04 00:46:01;;;;;;;;;1.67;1.67;;;;;23.09;55.65;98240.22;5013893;27;103247;-90
2021/08/04 00:48:28;;;;;;;;;0.00;0.00;;;;;23.08;55.51;98243.25;5013275;27;101792;-90
2021/08/04 00:50:56;;;;;;;;;1.00;1.00;;;;;23.07;55.75;98234.16;5014164;27;102713;-90
2021/08/04 00:53:27;;;;;;;;;1.00;1.00;;;;;23.07;55.66;98238.84;5004980;27;103016;-90
2021/08/04 00:55:56;;;;;;;;;1.00;1.00;;;;;23.08;55.71;98229.47;5000684;27;108187;-83
2021/08/04 00:58:29;;;;;;;;;0.33;0.33;;;;;23.07;55.67;98230.56;5018938;27;102131;-83
2021/08/04 01:01:00;;;;;;;;;0.67;0.67;;;;;23.06;55.54;98238.03;4990261;27;103564;-83
2021/08/04 01:03:30;;;;;;;;;1.00;0.67;;;;;23.05;55.71;98233.66;4871831;27;102096;-83
2021/08/04 01:05:57;;;;;;;;;0.67;0.67;;;;;23.05;55.68;98235.59;4935784;27;108191;-83
2021/08/04 01:08:29;;;;;;;;;1.67;1.00;;;;;23.04;55.63;98234.75;4961784;27;101867;-83
2021/08/04 01:10:56;;;;;;;;;1.67;1.00;;;;;23.04;55.66;98231.16;4932347;27;102407;-83
2021/08/04 01:13:44;;;;;;;;;1.00;1.00;;;;;23.04;55.53;98232.00;4904156;27;103347;-83
2021/08/04 01:16:23;;;;;;;;;0.67;0.67;;;;;23.05;55.66;98238.34;4927461;27;107318;-83
2021/08/04 01:19:07;;;;;;;;;1.00;1.00;;;;;23.04;55.85;98229.25;4935621;27;103910;-83
2021/08/04 01:21:59;;;;;;;;;0.67;0.67;;;;;23.04;55.55;98212.69;4918355;27;102236;-83
2021/08/04 01:25:06;;;;;;;;;1.00;1.00;;;;;23.02;55.59;98217.66;4993751;27;102242;-83
2021/08/04 01:27:50;;;;;;;;;1.00;1.00;;;;;23.02;55.72;98219.59;4949572;27;107934;-83
2021/08/04 01:30:25;;;;;;;;;0.67;0.67;;;;;23.01;55.74;98212.47;5015696;27;102036;-83
2021/08/04 01:33:00;;;;;;;;;2.00;2.00;;;;;23.00;55.72;98214.38;4985045;27;106003;-83
2021/08/04 01:35:34;;;;;;;;;1.00;1.00;;;;;23.01;55.69;98218.75;4981548;27;102164;-82
2021/08/04 01:38:08;;;;;;;;;1.00;1.00;;;;;23.00;55.72;98214.38;5003982;27;107250;-84
2021/08/04 01:40:43;;;;;;;;;1.00;1.00;;;;;22.99;55.79;98211.91;4991860;27;103226;-83
2021/08/04 01:43:20;;;;;;;;;2.00;2.00;;;;;23.01;55.65;98215.22;5012851;27;102561;-83
2021/08/04 01:45:58;;;;;;;;;1.00;1.00;;;;;23.00;55.76;98210.81;4981545;27;101904;-83
2021/08/04 01:48:32;;;;;;;;;0.67;0.67;;;;;22.99;55.63;98209.97;5000488;27;107194;-83
2021/08/04 01:51:12;;;;;;;;;1.33;1.00;;;;;23.00;55.79;98221.84;4991024;27;102030;-83
2021/08/04 01:53:45;;;;;;;;;1.33;1.33;;;;;22.98;55.74;98244.19;4991276;27;102277;-83
2021/08/04 01:56:14;;;;;;;;;0.67;0.33;;;;;22.98;55.74;98238.66;5009681;27;103429;-90
2021/08/04 01:58:42;;;;;;;;;2.00;2.00;;;;;22.98;55.71;98230.38;5019403;27;103488;-90
2021/08/04 02:01:10;;;;;;;;;1.33;1.00;;;;;22.99;55.72;98226.53;5012482;27;102473;-89
2021/08/04 02:03:37;;;;;;;;;1.67;0.67;;;;;22.98;55.73;98222.13;5002417;27;102293;-89
2021/08/04 02:06:21;;;;;;;;;2.00;0.67;;;;;22.97;55.54;98225.97;5010448;27;104019;-85
2021/08/04 02:08:58;;;;;;;;;2.33;1.00;;;;;22.98;55.61;98218.53;4963422;27;104965;-89
2021/08/04 02:11:58;;;;;;;;;0.67;0.67;;;;;22.98;55.78;98210.25;4999603;27;101811;-90
2021/08/04 02:14:27;;;;;;;;;0.67;0.67;;;;;22.95;55.72;98206.16;4951227;27;102256;-90
2021/08/04 02:17:01;;;;;;;;;1.00;0.33;;;;;22.94;55.71;98201.75;4996162;27;102075;-90
2021/08/04 02:19:31;;;;;;;;;1.33;0.33;;;;;22.94;55.75;98201.75;4996068;27;103517;-90
2021/08/04 02:22:02;;;;;;;;;0.00;0.00;;;;;22.95;55.62;98192.38;4967890;27;102187;-89
2021/08/04 02:24:31;;;;;;;;;0.67;0.67;;;;;22.93;55.73;98197.34;4995425;27;110324;-90
2021/08/04 02:27:00;;;;;;;;;1.67;0.67;;;;;22.94;55.95;98193.47;5011239;27;102190;-90
2021/08/04 02:29:30;;;;;;;;;0.67;0.67;;;;;22.93;55.67;98196.53;4982587;27;103608;-90
2021/08/04 02:31:57;;;;;;;;;2.00;1.00;;;;;22.93;55.67;98191.00;4993631;27;102135;-90
2021/08/04 02:34:25;;;;;;;;;0.00;0.00;;;;;22.92;55.81;98190.19;4978019;27;103039;-90
2021/08/04 02:36:52;;;;;;;;;0.67;0.67;;;;;22.93;55.82;98191.00;5003584;27;104929;-90
2021/08/04 02:39:19;;;;;;;;;0.67;0.67;;;;;22.92;55.68;98195.69;4996959;27;105257;-90
2021/08/04 02:41:46;;;;;;;;;1.00;1.00;;;;;22.92;55.81;98192.13;4976486;27;102177;-90
2021/08/04 02:44:15;;;;;;;;;2.00;2.00;;;;;22.92;55.86;98189.38;4971725;27;103497;-89
2021/08/04 02:46:46;;;;;;;;;1.00;1.00;;;;;22.91;55.83;98199.59;4999090;27;101866;-89
2021/08/04 02:49:14;;;;;;;;;0.33;0.33;;;;;22.91;55.87;98196.00;4997025;27;103602;-90
2021/08/04 02:51:41;;;;;;;;;1.00;1.00;;;;;22.91;55.70;98185.81;4985996;27;102117;-90
2021/08/04 02:54:09;;;;;;;;;0.67;0.67;;;;;22.91;55.82;98188.56;5009765;27;101733;-90
2021/08/04 02:56:38;;;;;;;;;2.67;1.67;;;;;22.91;55.87;98183.03;4988963;27;102746;-89
2021/08/04 02:59:05;;;;;;;;;0.33;0.33;;;;;22.91;55.70;98191.31;5015405;27;103399;-90
2021/08/04 03:01:32;;;;;;;;;0.67;0.67;;;;;22.91;55.68;98193.25;5011641;27;102070;-90
2021/08/04 03:04:00;;;;;;;;;1.00;1.00;;;;;22.90;55.66;98197.94;5014815;27;103183;-90
2021/08/04 03:06:27;;;;;;;;;0.33;0.33;;;;;22.90;55.71;98197.94;5010260;27;102180;-90
2021/08/04 03:08:54;;;;;;;;;1.00;0.67;;;;;22.90;55.75;98197.94;5013523;27;103423;-90
2021/08/04 03:11:21;;;;;;;;;2.00;2.00;;;;;22.89;55.83;98199.03;5002923;27;102074;-90
2021/08/04 03:13:48;;;;;;;;;0.67;0.67;;;;;22.89;55.89;98193.53;5009846;27;101799;-90
2021/08/04 03:16:15;;;;;;;;;1.33;0.67;;;;;22.89;55.78;98199.03;5021294;27;103374;-90
2021/08/04 03:18:43;;;;;;;;;1.00;1.00;;;;;22.88;55.84;98189.13;5011559;27;104023;-90
2021/08/04 03:21:10;;;;;;;;;0.67;0.67;;;;;22.87;55.77;98198.53;5015658;27;101752;-89
2021/08/04 03:23:37;;;;;;;;;0.67;0.67;;;;;22.88;55.75;98202.91;5015167;27;102523;-89
2021/08/04 03:26:04;;;;;;;;;0.67;0.67;;;;;22.88;55.76;98205.66;5019935;27;103669;-90
2021/08/04 03:28:31;;;;;;;;;0.67;0.67;;;;;22.87;55.75;98212.31;5023949;27;108864;-90
2021/08/04 03:30:59;;;;;;;;;0.67;0.67;;;;;22.87;55.79;98203.22;5019849;27;102269;-90
2021/08/04 03:33:26;;;;;;;;;0.33;0.33;;;;;22.87;55.90;98209.56;5025386;27;102001;-90
2021/08/04 03:35:53;;;;;;;;;1.00;1.00;;;;;22.86;55.80;98207.91;5021973;27;102822;-90
2021/08/04 03:38:20;;;;;;;;;1.00;1.00;;;;;22.86;55.85;98205.16;5018759;27;103571;-91
2021/08/04 03:40:47;;;;;;;;;0.33;0.33;;;;;22.86;55.76;98205.16;5010188;27;101811;-90
2021/08/04 03:43:14;;;;;;;;;0.67;0.67;;;;;22.85;55.76;98200.75;5013062;27;102156;-90
2021/08/04 03:45:42;;;;;;;;;2.00;1.67;;;;;22.86;55.79;98209.84;5009491;27;102087;-90
2021/08/04 03:48:09;;;;;;;;;0.67;0.67;;;;;22.87;55.82;98214.25;5007240;27;103381;-89
2021/08/04 03:50:36;;;;;;;;;1.00;1.00;;;;;22.85;55.93;98214.53;5027964;27;103213;-90
2021/08/04 03:53:03;;;;;;;;;1.00;0.67;;;;;22.86;55.77;98218.09;5024107;27;103451;-90
2021/08/04 03:55:30;;;;;;;;;1.33;1.33;;;;;22.86;55.94;98223.63;5026252;27;103204;-83
2021/08/04 03:57:57;;;;;;;;;1.33;1.33;;;;;22.85;55.70;98222.78;5008121;27;103639;-83
2021/08/04 04:00:25;;;;;;;;;1.67;1.67;;;;;22.85;55.86;98228.31;5016160;27;103166;-83
2021/08/04 04:02:52;;;;;;;;;0.67;0.67;;;;;22.85;55.73;98227.47;5021757;27;109295;-83
2021/08/04 04:05:19;;;;;;;;;0.67;0.67;;;;;22.85;55.89;98228.31;5027471;27;101838;-83
2021/08/04 04:07:46;;;;;;;;;0.00;0.00;;;;;22.83;55.82;98222.25;5012096;27;103402;-83
2021/08/04 04:10:14;;;;;;;;;1.00;0.67;;;;;22.84;56.00;98223.06;5029404;27;101943;-83
2021/08/04 04:12:41;;;;;;;;;0.67;0.67;;;;;22.84;55.87;98226.66;5021073;27;102110;-83
2021/08/04 04:15:09;;;;;;;;;1.00;1.00;;;;;22.84;55.82;98215.63;5023612;27;102232;-83
2021/08/04 04:17:36;;;;;;;;;0.33;0.33;;;;;22.84;55.80;98226.66;5011086;27;103466;-83
2021/08/04 04:20:04;;;;;;;;;2.67;2.67;;;;;22.83;55.77;98230.53;5013789;27;102342;-83
2021/08/04 04:22:31;;;;;;;;;1.00;0.33;;;;;22.84;55.82;98232.16;5002683;27;102095;-83
2021/08/04 04:24:58;;;;;;;;;0.67;0.67;;;;;22.84;55.87;98231.34;5016450;27;104956;-83
2021/08/04 04:27:25;;;;;;;;;1.33;1.33;;;;;22.83;55.70;98232.47;5015170;27;104754;-83
2021/08/04 04:29:52;;;;;;;;;1.33;0.33;;;;;22.84;55.80;98236.84;5021306;27;102239;-83
2021/08/04 04:32:19;;;;;;;;;0.67;0.67;;;;;22.83;55.78;98236.03;5022362;27;103119;-83
2021/08/04 04:34:46;;;;;;;;;0.67;0.67;;;;;22.82;55.83;98237.16;5017165;27;102981;-83
2021/08/04 04:37:14;;;;;;;;;1.67;1.67;;;;;22.83;55.80;98236.03;5007088;27;103365;-83
2021/08/04 04:39:41;;;;;;;;;0.67;0.67;;;;;22.82;55.90;98231.66;5016528;27;102155;-83
2021/08/04 04:42:08;;;;;;;;;1.33;1.33;;;;;22.83;55.94;98241.53;5016950;27;102180;-83
2021/08/04 04:44:35;;;;;;;;;1.67;1.67;;;;;22.82;55.93;98228.91;5035602;27;102683;-83
2021/08/04 04:47:06;;;;;;;;;1.00;1.00;;;;;22.83;55.75;98236.03;5008494;27;107980;-83
2021/08/04 04:49:33;;;;;;;;;1.67;1.67;;;;;22.82;55.79;98234.41;4987227;27;102267;-83
2021/08/04 04:52:00;;;;;;;;;0.33;0.33;;;;;22.83;55.71;98232.47;5017650;27;103420;-83
2021/08/04 04:54:27;;;;;;;;;1.00;1.00;;;;;22.82;55.79;98239.94;4989774;27;102092;-90
2021/08/04 04:56:54;;;;;;;;;0.00;0.00;;;;;22.82;55.87;98248.19;5007712;27;103396;-90
2021/08/04 04:59:21;;;;;;;;;0.67;0.33;;;;;22.83;55.66;98243.50;5031358;27;102021;-90
2021/08/04 05:01:49;;;;;;;;;1.33;1.00;;;;;22.83;55.72;98255.34;5019277;27;102124;-90
2021/08/04 05:04:16;;;;;;;;;0.33;0.33;;;;;22.83;55.61;98247.06;5030281;27;102202;-90
2021/08/04 05:06:43;;;;;;;;;0.67;0.67;;;;;22.83;55.74;98252.56;5003293;27;111249;-89
2021/08/04 05:09:11;;;;;;;;;1.67;0.67;;;;;22.84;55.73;98259.75;5025608;27;103420;-90
2021/08/04 05:11:38;;;;;;;;;1.67;1.33;;;;;22.83;55.69;98258.09;5025908;27;102119;-90
2021/08/04 05:14:05;;;;;;;;;1.00;1.00;;;;;22.84;55.50;98258.91;5018739;27;102192;-90
2021/08/04 05:16:32;;;;;;;;;0.67;0.67;;;;;22.83;55.49;98260.84;5016536;27;103503;-90
2021/08/04 05:19:00;;;;;;;;;1.00;1.00;;;;;22.83;55.65;98258.09;5008721;27;103425;-90
2021/08/04 05:21:27;;;;;;;;;2.00;2.00;;;;;22.83;55.67;98255.34;5007367;27;102385;-90
2021/08/04 05:23:54;;;;;;;;;0.67;0.67;;;;;22.81;55.60;98243.78;5029503;27;102103;-90
2021/08/04 05:26:23;;;;;;;;;1.00;1.00;;;;;22.83;55.66;98249.81;5020964;27;103586;-90
2021/08/04 05:28:51;;;;;;;;;0.67;0.67;;;;;22.84;55.50;98247.88;5021162;27;102320;-90
2021/08/04 05:31:18;;;;;;;;;1.00;1.00;;;;;22.84;55.46;98243.19;5020496;27;102578;-90
2021/08/04 05:33:46;;;;;;;;;0.67;0.67;;;;;22.84;55.44;98245.13;5012561;27;102328;-90
2021/08/04 05:36:13;;;;;;;;;1.00;1.00;;;;;22.84;55.41;98239.63;5011429;27;103461;-90
2021/08/04 05:38:40;;;;;;;;;1.67;1.67;;;;;22.84;55.50;98243.19;5022284;27;104489;-90
2021/08/04 05:41:07;;;;;;;;;0.33;0.33;;;;;22.84;55.27;98248.72;5010452;27;102193;-89
2021/08/04 05:43:34;;;;;;;;;1.67;1.00;;;;;22.85;55.33;98247.59;5023307;27;102130;-90
2021/08/04 05:46:01;;;;;;;;;0.67;0.00;;;;;22.86;55.51;98253.94;5030378;27;104377;-90
2021/08/04 05:48:29;;;;;;;;;1.00;1.00;;;;;22.86;55.33;98251.19;5014973;27;102266;-90
2021/08/04 05:50:56;;;;;;;;;0.67;0.67;;;;;22.87;55.48;98258.34;5005683;27;103996;-90
2021/08/04 05:53:23;;;;;;;;;0.67;0.67;;;;;22.86;55.29;98259.47;5009200;27;101943;-90
2021/08/04 05:55:50;;;;;;;;;1.33;0.33;;;;;22.86;55.25;98260.28;5016228;27;103807;-90
2021/08/04 05:58:18;;;;;;;;;1.00;1.00;;;;;22.86;55.29;98263.03;5009517;27;102269;-90
2021/08/04 06:00:45;;;;;;;;;0.33;0.33;;;;;22.85;55.29;98261.38;5021845;27;101551;-89
2021/08/04 06:03:12;;;;;;;;;1.67;1.67;;;;;22.88;55.26;98263.56;5019966;27;102685;-89
2021/08/04 06:05:39;;;;;;;;;0.67;0.00;;;;;22.89;55.34;98259.69;5022544;27;103568;-90
2021/08/04 06:08:07;;;;;;;;;0.67;0.67;;;;;22.86;55.33;98254.78;5014316;27;101861;-90
2021/08/04 06:10:35;;;;;;;;;1.00;1.00;;;;;22.90;55.15;98264.09;5011554;27;101878;-90
2021/08/04 06:13:02;;;;;;;;;0.67;0.67;;;;;22.91;54.99;98260.25;5007141;27;103934;-90
2021/08/04 06:15:46;;;;;;;;;0.67;0.67;;;;;22.91;55.20;98260.25;4943846;27;107069;-90
2021/08/04 06:18:14;;;;;;;;;0.67;0.67;;;;;22.92;55.29;98256.34;5018076;27;102021;-89
2021/08/04 06:20:42;;;;;;;;;1.00;1.00;;;;;22.93;55.19;98263.53;5023430;27;101735;-86
2021/08/04 06:23:09;;;;;;;;;1.00;1.00;;;;;22.93;55.15;98262.69;5014488;27;101782;-90
2021/08/04 06:25:36;;;;;;;;;0.00;0.00;;;;;22.93;55.10;98269.03;5019820;27;108688;-89
2021/08/04 06:28:04;;;;;;;;;0.67;0.67;;;;;22.95;55.04;98275.09;5005616;27;102719;-90
2021/08/04 06:30:31;;;;;;;;;1.00;1.00;;;;;22.97;55.10;98277.53;5013320;27;101849;-90
2021/08/04 06:32:58;;;;;;;;;1.67;1.33;;;;;22.97;55.15;98272.84;5017655;27;102152;-90
2021/08/04 06:35:25;;;;;;;;;0.67;0.67;;;;;22.98;55.04;98274.50;5021590;27;103504;-90
2021/08/04 06:37:52;;;;;;;;;0.00;0.00;;;;;22.98;55.08;98271.75;5031328;27;101942;-89
2021/08/04 06:40:20;;;;;;;;;0.67;0.67;;;;;22.98;54.89;98263.47;5021538;27;102008;-89
2021/08/04 06:42:47;;;;;;;;;0.67;0.67;;;;;23.00;55.07;98268.72;5009374;27;102250;-88
2021/08/04 06:45:14;;;;;;;;;1.33;1.33;;;;;22.99;54.94;98278.91;5007319;27;103460;-88
2021/08/04 06:47:41;;;;;;;;;0.00;0.00;;;;;22.99;54.97;98262.38;5023126;27;103752;-89
2021/08/04 06:50:09;;;;;;;;;0.67;0.67;;;;;23.02;54.98;98277.50;5014563;27;102161;-89
2021/08/04 06:52:36;;;;;;;;;1.00;1.00;;;;;23.02;54.86;98264.53;5029996;27;103131;-89
2021/08/04 06:55:03;;;;;;;;;0.33;0.33;;;;;23.03;54.78;98279.97;5015598;27;103453;-89
2021/08/04 06:57:31;;;;;;;;;1.00;1.00;;;;;23.02;54.92;98267.31;5032476;27;101994;-89
2021/08/04 06:59:58;;;;;;;;;1.00;1.00;;;;;23.04;54.76;98272.53;5024135;27;101871;-89
2021/08/04 07:02:25;;;;;;;;;1.00;1.00;;;;;23.03;54.79;98266.19;5026471;27;101764;-89
2021/08/04 07:04:52;;;;;;;;;0.67;0.67;;;;;23.04;54.86;98276.13;5020973;27;103919;-89
2021/08/04 07:07:19;;;;;;;;;1.00;1.00;;;;;23.05;54.78;98276.94;5020294;27;102121;-89
2021/08/04 07:09:47;;;;;;;;;1.00;0.67;;;;;23.06;54.84;98270.28;5009097;27;103215;-88
2021/08/04 07:12:14;;;;;;;;;1.00;1.00;;;;;23.06;54.66;98275.81;5024474;27;101707;-88
2021/08/04 07:14:41;;;;;;;;;0.67;0.67;;;;;23.06;54.84;98279.41;5005525;27;103712;-89
2021/08/04 07:17:08;;;;;;;;;0.33;0.33;;;;;23.07;54.63;98278.28;5008380;27;102060;-88
2021/08/04 07:19:36;;;;;;;;;0.67;0.67;;;;;23.07;54.73;98266.44;5022552;27;101840;-89
2021/08/04 07:22:03;;;;;;;;;0.00;0.00;;;;;23.08;54.65;98268.91;5014005;27;101863;-88
2021/08/04 07:24:34;;;;;;;;;0.67;0.33;;;;;23.08;54.59;98265.31;5007006;27;103398;-88
2021/08/04 07:27:02;;;;;;;;;0.67;0.00;;;;;23.08;54.58;98271.66;5005228;27;102107;-89
2021/08/04 07:29:29;;;;;;;;;0.00;0.00;;;;;23.09;54.71;98267.81;5015547;27;102030;-89
2021/08/04 07:31:56;;;;;;;;;3.00;0.00;;;;;23.09;54.45;98273.31;5033681;27;101764;-89
2021/08/04 07:34:24;;;;;;;;;1.00;1.00;;;;;23.08;54.54;98266.16;5033161;27;103789;-89
2021/08/04 07:36:52;;;;;;;;;0.00;0.00;;;;;23.09;54.55;98276.09;5000503;27;101839;-88
2021/08/04 07:39:19;;;;;;;;;1.00;0.00;;;;;23.09;54.57;98273.31;5000902;27;101735;-88
2021/08/04 07:41:46;;;;;;;;;0.00;0.00;;;;;23.09;54.64;98270.56;5017751;27;103323;-88
2021/08/04 07:44:14;;;;;;;;;1.67;1.00;;;;;23.10;54.73;98266.66;5019351;27;103545;-87
2021/08/04 07:46:52;;;;;;;;;0.00;0.00;;;;;23.12;54.63;98274.66;5020819;27;102282;-88
2021/08/04 07:49:19;;;;;;;;;0.33;0.33;;;;;23.10;54.60;98268.59;5020787;27;101795;-88
2021/08/04 07:51:47;;;;;;;;;0.67;0.67;;;;;23.10;54.65;98261.16;4984158;27;102208;-88
2021/08/04 07:54:14;;;;;;;;;1.00;0.67;;;;;23.11;54.52;98268.31;5005379;27;103459;-88
2021/08/04 07:56:41;;;;;;;;;1.00;1.00;;;;;23.09;54.73;98259.53;5018004;27;102139;-88
2021/08/04 07:59:09;;;;;;;;;0.33;0.00;;;;;23.09;54.63;98256.78;5014937;27;102060;-89
2021/08/04 08:01:39;;;;;;;;;0.67;0.67;;;;;23.11;54.60;98261.97;5026685;27;102705;-88
2021/08/04 08:04:06;;;;;;;;;1.00;1.00;;;;;23.11;54.60;98260.03;5025414;27;103562;-88
2021/08/04 08:06:33;;;;;;;;;0.00;0.00;;;;;23.10;54.45;98255.63;5017792;27;102565;-89
2021/08/04 08:09:01;;;;;;;;;0.67;0.67;;;;;23.13;54.57;98265.28;5017187;27;102064;-88
2021/08/04 08:11:28;;;;;;;;;0.67;0.67;;;;;23.13;54.41;98266.09;5027304;27;101749;-88
2021/08/04 08:13:55;;;;;;;;;0.33;0.33;;;;;23.13;54.48;98271.63;5020882;27;103676;-88
2021/08/04 08:16:22;;;;;;;;;1.00;1.00;;;;;23.15;54.47;98274.06;5007144;27;101956;-88
2021/08/04 08:18:54;;;;;;;;;0.00;0.00;;;;;23.16;54.44;98266.63;5020159;27;101951;-88
2021/08/04 08:21:23;;;;;;;;;1.00;1.00;;;;;23.16;54.32;98261.94;5000875;27;102054;-88
2021/08/04 08:23:51;;;;;;;;;2.00;1.00;;;;;23.18;54.29;98269.94;5012191;27;103546;-88
2021/08/04 08:26:21;;;;;;;;;0.67;0.67;;;;;23.20;54.23;98267.69;5018278;27;101873;-88
2021/08/04 08:28:48;;;;;;;;;0.67;0.00;;;;;23.21;54.20;98263.81;4994530;27;103157;-88
2021/08/04 08:31:15;;;;;;;;;0.00;0.00;;;;;23.22;54.43;98265.47;5030467;27;102085;-88
2021/08/04 08:33:43;;;;;;;;;1.00;0.00;;;;;23.22;54.33;98271.81;5023793;27;103434;-88
2021/08/04 08:36:10;;;;;;;;;0.67;0.67;;;;;23.22;54.27;98265.47;5018383;27;101878;-88
2021/08/04 08:38:37;;;;;;;;;0.00;0.00;;;;;23.25;54.15;98270.41;5021460;27;102205;-89
2021/08/04 08:41:06;;;;;;;;;0.00;0.00;;;;;23.25;54.06;98267.63;4987447;27;103639;-89
2021/08/04 08:43:34;;;;;;;;;1.00;0.00;;;;;23.26;54.09;98267.34;5009554;27;103836;-88
2021/08/04 08:46:02;;;;;;;;;0.00;0.00;;;;;23.26;54.15;98261.84;5009659;27;102040;-88
2021/08/04 08:48:29;;;;;;;;;0.67;0.67;;;;;23.28;54.12;98276.16;5004559;27;101636;-88
2021/08/04 08:50:56;;;;;;;;;0.00;0.00;;;;;23.29;53.93;98271.47;5015209;27;102136;-88
2021/08/04 08:53:23;;;;;;;;;1.00;1.00;;;;;23.30;54.18;98270.34;5003382;27;103454;-88
2021/08/04 08:55:51;;;;;;;;;2.00;2.00;;;;;23.30;53.99;98265.66;4993066;27;105701;-83
2021/08/04 08:58:18;;;;;;;;;0.33;0.33;;;;;23.31;54.04;98263.72;5014669;27;103058;-83
2021/08/04 09:00:45;;;;;;;;;0.00;0.00;;;;;23.31;53.90;98266.47;5020432;27;104580;-83
2021/08/04 09:03:12;;;;;;;;;0.00;0.00;;;;;23.31;54.19;98270.06;5010589;27;103729;-83
2021/08/04 09:05:48;;;;;;;;;1.00;1.00;;;;;23.33;54.00;98269.75;5003025;27;101810;-83
2021/08/04 09:08:22;;;;;;;;;0.00;0.00;;;;;23.32;54.01;98265.38;5025081;27;102127;-83
2021/08/04 09:10:49;;;;;;;;;1.00;1.00;;;;;23.33;54.06;98264.25;5015727;27;102415;-83
2021/08/04 09:13:18;;;;;;;;;1.00;1.00;;;;;23.33;53.89;98270.59;4995730;27;103376;-83
2021/08/04 09:15:45;;;;;;;;;0.67;0.67;;;;;23.33;54.01;98265.06;4994938;27;101905;-83
2021/08/04 09:18:13;;;;;;;;;0.33;0.00;;;;;23.33;54.06;98267.81;5016116;27;102887;-83
2021/08/04 09:20:43;;;;;;;;;0.00;0.00;;;;;23.33;53.85;98276.09;5032789;27;102026;-83
2021/08/04 09:23:15;;;;;;;;;0.00;0.00;;;;;23.34;53.86;98275.00;5002752;27;103558;-83
2021/08/04 09:26:09;;;;;;;;;0.67;0.67;;;;;23.34;53.98;98265.88;5014821;27;102191;-83
2021/08/04 09:29:07;;;;;;;;;0.00;0.00;;;;;23.35;54.00;98270.31;4954945;27;106395;-83
2021/08/04 09:31:40;;;;;;;;;0.33;0.33;;;;;23.34;53.93;98266.72;4945865;27;101864;-83
2021/08/04 09:34:27;;;;;;;;;1.00;1.00;;;;;23.36;53.80;98263.69;5013276;27;103402;-83
2021/08/04 09:37:04;;;;;;;;;0.33;0.33;;;;;23.36;53.98;98266.44;4948171;27;101750;-83
2021/08/04 09:39:32;;;;;;;;;0.00;0.00;;;;;23.36;54.05;98255.41;5014060;27;102130;-83
2021/08/04 09:42:00;;;;;;;;;0.00;0.00;;;;;23.36;53.84;98261.75;5026768;27;103002;-83
2021/08/04 09:44:27;;;;;;;;;0.33;0.33;;;;;23.37;53.79;98257.06;5002894;27;103642;-83
2021/08/04 09:47:11;;;;;;;;;0.00;0.00;;;;;23.38;53.69;98258.66;5023888;27;101956;-83
2021/08/04 09:49:39;;;;;;;;;0.00;0.00;;;;;23.38;53.73;98259.50;5009986;27;103170;-83
2021/08/04 09:52:11;;;;;;;;;1.00;0.00;;;;;23.39;53.73;98254.81;5002661;27;106478;-83
2021/08/04 09:54:42;;;;;;;;;1.00;0.33;;;;;23.39;53.89;98260.31;5000575;27;103405;-83
2021/08/04 09:57:10;;;;;;;;;0.00;0.00;;;;;23.39;53.93;98261.16;5017000;27;102094;-83
2021/08/04 09:59:37;;;;;;;;;0.00;0.00;;;;;23.41;53.68;98269.16;5001583;27;101770;-83
2021/08/04 10:02:05;;;;;;;;;0.33;0.33;;;;;23.41;53.82;98269.16;5017550;27;102181;-82
2021/08/04 10:04:32;;;;;;;;;0.00;0.00;;;;;23.41;53.79;98264.44;5020570;27;104709;-83
2021/08/04 10:07:04;;;;;;;;;0.00;0.00;;;;;23.42;53.68;98262.50;5019613;27;103134;-83
2021/08/04 10:09:32;;;;;;;;;0.00;0.00;;;;;23.43;53.75;98269.66;5005249;27;101709;-83
2021/08/04 10:11:59;;;;;;;;;0.00;0.00;;;;;23.44;53.73;98263.88;5018946;27;101922;-82
2021/08/04 10:14:26;;;;;;;;;0.00;0.00;;;;;23.43;53.74;98256.69;5012017;27;103572;-88
2021/08/04 10:16:53;;;;;;;;;1.00;1.00;;;;;23.46;53.58;98261.63;4997946;27;101949;-88
2021/08/04 10:19:22;;;;;;;;;0.00;0.00;;;;;23.46;53.70;98258.09;5018105;27;101670;-88
2021/08/04 10:21:51;;;;;;;;;1.00;0.00;;;;;23.48;53.69;98261.34;5022062;27;101929;-88
2021/08/04 10:24:18;;;;;;;;;1.00;1.00;;;;;23.48;53.79;98269.63;5016881;27;103585;-87
2021/08/04 10:26:46;;;;;;;;;0.00;0.00;;;;;23.48;53.66;98264.94;5020095;27;102022;-89
2021/08/04 10:29:13;;;;;;;;;0.00;0.00;;;;;23.50;53.42;98264.66;4999108;27;102208;-89
2021/08/04 10:31:40;;;;;;;;;1.00;1.00;;;;;23.49;53.53;98261.06;5020374;27;102079;-88
2021/08/04 10:34:25;;;;;;;;;0.00;0.00;;;;;23.51;53.56;98266.28;5017566;27;108185;-88
2021/08/04 10:36:54;;;;;;;;;0.67;0.67;;;;;23.51;53.59;98260.75;5002043;27;101908;-88
2021/08/04 10:39:21;;;;;;;;;0.33;0.33;;;;;23.53;53.47;98255.78;4987929;27;102184;-88
2021/08/04 10:42:05;;;;;;;;;0.67;0.67;;;;;23.52;53.42;98251.38;5005656;27;103530;-84
2021/08/04 10:44:32;;;;;;;;;0.00;0.00;;;;;23.53;53.59;98255.78;5011215;27;103591;-88
2021/08/04 10:47:02;;;;;;;;;0.33;0.33;;;;;23.54;53.34;98258.28;5020852;27;102506;-88
2021/08/04 10:49:32;;;;;;;;;0.00;0.00;;;;;23.53;53.47;98250.28;5025202;27;102191;-88
2021/08/04 10:51:59;;;;;;;;;1.00;1.00;;;;;23.56;53.31;98249.66;5009822;27;102039;-88
2021/08/04 10:54:30;;;;;;;;;0.67;0.67;;;;;23.58;53.37;98246.63;5008522;27;103661;-88
2021/08/04 10:56:57;;;;;;;;;0.67;0.67;;;;;23.57;53.49;98237.53;5011069;27;102539;-88
2021/08/04 10:59:25;;;;;;;;;1.00;0.00;;;;;23.59;53.43;98240.00;5013485;27;104191;-88
2021/08/04 11:01:53;;;;;;;;;0.00;0.00;;;;;23.61;53.23;98241.34;5001152;27;101918;-88
2021/08/04 11:04:30;;;;;;;;;0.00;0.00;;;;;23.62;53.53;98253.19;5012445;27;103364;-88
2021/08/04 11:07:19;;;;;;;;;0.33;0.33;;;;;23.62;53.50;98254.03;5006996;27;101668;-88
2021/08/04 11:09:46;;;;;;;;;0.33;0.33;;;;;23.62;53.49;98247.69;5030636;27;101873;-89
2021/08/04 11:12:17;;;;;;;;;1.00;0.00;;;;;23.63;53.26;98246.56;5015253;27;102212;-88
2021/08/04 11:14:59;;;;;;;;;0.67;0.67;;;;;23.64;53.40;98246.25;5005066;27;106326;-88
2021/08/04 11:17:30;;;;;;;;;0.67;0.00;;;;;23.65;53.25;98239.63;4948779;27;105030;-88
2021/08/04 11:20:05;;;;;;;;;1.00;0.67;;;;;23.66;53.45;98243.22;4995839;27;102076;-88
2021/08/04 11:22:35;;;;;;;;;0.00;0.00;;;;;23.67;53.15;98245.69;5017035;27;102130;-88
2021/08/04 11:25:10;;;;;;;;;0.67;0.00;;;;;23.67;53.29;98240.16;5021203;27;103865;-88
2021/08/04 11:27:44;;;;;;;;;0.00;0.00;;;;;23.68;53.23;98241.81;5021444;27;102113;-89
2021/08/04 11:30:13;;;;;;;;;0.00;0.00;;;;;23.69;53.24;98254.47;4995894;27;102069;-88
2021/08/04 11:32:40;;;;;;;;;0.33;0.33;;;;;23.69;53.13;98248.13;5026509;27;102572;-88
2021/08/04 11:35:18;;;;;;;;;0.00;0.00;;;;;23.70;53.32;98256.13;5012173;27;103949;-89
2021/08/04 11:37:45;;;;;;;;;0.00;0.00;;;;;23.70;53.36;98256.13;5017753;27;102226;-88